Terminal Aerodrome Forecast
Issued by NWS

Home | Current Version | Previous Version | Text Only | Print | Product List | Glossary On
Versions: 1 2 3 4 5 6 7 8 9 10 11 12 13 14 15 16 17
271
FTUS46 KSEW 130533
TAFPAE
TAF
KPAE 130533Z 1306/1406 19014G22KT P6SM SCT060
     FM130900 18012G18KT P6SM SCT025 BKN045
      TEMPO 1309/1313 -SHRA BKN025 OVC045
     FM131300 17010KT P6SM SCT025 BKN045
     FM132000 16012G20KT P6SM -RA OVC040
     FM140000 16012G20KT 5SM -RA SCT010 OVC018=

USA.gov is the U.S. government's official web portal to all federal, state and local government web resources and services.